Jrs Merkur — V2FD8 — position and weather

sailwx.info

Track history (hours):
 
Tides and Currents Weather Stations Pressure Air Temp Water Temp Dewpoint Dewpoint Depression Visibility Wind Speed Wind Dir Waves Ship Positions

Jrs Merkur

Last reported at 2016-Apr-30 16:33 UTC. Time now 2016-May-05 04:50 UTC.
Position N 59°35' E 021°00'.

Length 107 m; draft 7.9 m.

Type: Cargo ship. MMSI: 305644000.

Date/timePositionNaut miles runAvg speedWind from/ knotsBaromVisibWave heightAir tempDewpointWater temp
2016-Apr-30 16:33N 59°35' E 021°00'1010.1
2016-Apr-30 15:33N 59°34' E 021°20'1010.2
2016-Apr-30 14:33N 59°35' E 021°40'10 9.6
2016-Apr-30 13:33N 59°35' E 021°59'1111.1
2016-Apr-30 12:33N 59°36' E 022°21'1511.2
2016-Apr-30 11:11N 59°37' E 022°51'711.2
2016-Apr-30 10:33N 59°37' E 023°05'1111.1
2016-Apr-30 09:33N 59°40' E 023°26'1211.4
2016-Apr-30 08:32N 59°43' E 023°48'1211.3
2016-Apr-30 07:30N 59°46' E 024°11'6611.1
2016-Apr-30 01:32N 60°08' E 026°16'1010.4
2016-Apr-30 00:33N 60°17' E 026°25'9 3.0
2016-Apr-29 21:26N 60°25' E 026°15'0 0.0
2016-Apr-29 20:32N 60°25' E 026°15'0 0.0
2016-Apr-29 05:32N 60°25' E 026°15'0 0.0
2016-Apr-29 04:32N 60°25' E 026°15'0 0.0
2016-Apr-28 17:26N 60°25' E 026°15'0 0.0
2016-Apr-28 16:32N 60°25' E 026°15'0 0.0
2016-Apr-28 15:26N 60°25' E 026°15'0 0.0
2016-Apr-28 14:26N 60°25' E 026°15'0 0.0
2016-Apr-28 13:32N 60°25' E 026°15'0 0.1
2016-Apr-28 12:34N 60°25' E 026°15'4 3.9
2016-Apr-28 11:33N 60°21' E 026°19'10 9.8
2016-Apr-28 10:33N 60°12' E 026°23'2 1.4
2016-Apr-28 09:23N 60°11' E 026°20'0 0.1
2016-Apr-28 08:33N 60°11' E 026°20'52 9.9
2016-Apr-28 03:18N 59°44' E 024°51'911.5
2016-Apr-28 02:31N 59°35' E 024°49'15 1.9
2016-Apr-27 18:23N 59°37' E 024°19'1011.4
2016-Apr-27 17:30N 59°35' E 023°59'1411.3
2016-Apr-27 16:18N 59°31' E 023°33'  
2016-Apr-21 17:18N 55°42' E 015°36'911.7
2016-Apr-21 16:31N 55°38' E 015°22'1111.5
2016-Apr-21 15:33N 55°32' E 015°05'1211.6
2016-Apr-21 14:33N 55°27' E 014°47'1211.5
2016-Apr-21 13:33N 55°19' E 014°32'1111.1
2016-Apr-21 12:33N 55°11' E 014°18'1111.2
2016-Apr-21 11:33N 55°09' E 013°59'1211.5
2016-Apr-21 10:33N 55°10' E 013°39'1411.5
2016-Apr-21 09:20N 55°13' E 013°14'911.7
2016-Apr-21 08:33N 55°14' E 012°59'1111.4
2016-Apr-21 07:33N 55°18' E 012°40'1010.1
2016-Apr-21 06:33N 55°28' E 012°41'10 9.8
2016-Apr-21 05:33N 55°38' E 012°42'1010.4
2016-Apr-21 04:34N 55°48' E 012°42'1110.7
2016-Apr-21 03:34N 55°59' E 012°40'1110.6
2016-Apr-21 02:34N 56°07' E 012°30'1111.3
2016-Apr-21 01:33N 56°14' E 012°12'1410.5
2016-Apr-21 00:13N 56°26' E 011°60'811.5
2016-Apr-20 23:33N 56°33' E 011°57'1111.4
2016-Apr-20 22:33N 56°44' E 011°52'1311.3
2016-Apr-20 21:26N 56°56' E 011°45'1011.2
2016-Apr-20 20:32N 57°06' E 011°39'1111.1
2016-Apr-20 19:33N 57°16' E 011°32'1111.3
2016-Apr-20 18:33N 57°27' E 011°24'1111.5
2016-Apr-20 17:34N 57°35' E 011°09'1211.8
2016-Apr-20 16:33N 57°43' E 010°53'  
Track history (hours):
 
Tides and Currents Weather Stations Pressure Air Temp Water Temp Dewpoint Dewpoint Depression Visibility Wind Speed Wind Dir Waves Ship Positions

Jrs Merkur

Last reported at 2016-Apr-30 16:33 UTC. Time now 2016-May-05 04:50 UTC.
Position N 59°35' E 021°00'.

Length 107 m; draft 7.9 m.

Type: Cargo ship. MMSI: 305644000.

Date/timePositionNaut miles runAvg speedWind from/ knotsBaromVisibWave heightAir tempDewpointWater temp
2016-Apr-30 16:33N 59°35' E 021°00'1010.1
2016-Apr-30 15:33N 59°34' E 021°20'1010.2
2016-Apr-30 14:33N 59°35' E 021°40'10 9.6
2016-Apr-30 13:33N 59°35' E 021°59'1111.1
2016-Apr-30 12:33N 59°36' E 022°21'1511.2
2016-Apr-30 11:11N 59°37' E 022°51'711.2
2016-Apr-30 10:33N 59°37' E 023°05'1111.1
2016-Apr-30 09:33N 59°40' E 023°26'1211.4
2016-Apr-30 08:32N 59°43' E 023°48'1211.3
2016-Apr-30 07:30N 59°46' E 024°11'6611.1
2016-Apr-30 01:32N 60°08' E 026°16'1010.4
2016-Apr-30 00:33N 60°17' E 026°25'9 3.0
2016-Apr-29 21:26N 60°25' E 026°15'0 0.0
2016-Apr-29 20:32N 60°25' E 026°15'0 0.0
2016-Apr-29 05:32N 60°25' E 026°15'0 0.0
2016-Apr-29 04:32N 60°25' E 026°15'0 0.0
2016-Apr-28 17:26N 60°25' E 026°15'0 0.0
2016-Apr-28 16:32N 60°25' E 026°15'0 0.0
2016-Apr-28 15:26N 60°25' E 026°15'0 0.0
2016-Apr-28 14:26N 60°25' E 026°15'0 0.0
2016-Apr-28 13:32N 60°25' E 026°15'0 0.1
2016-Apr-28 12:34N 60°25' E 026°15'4 3.9
2016-Apr-28 11:33N 60°21' E 026°19'10 9.8
2016-Apr-28 10:33N 60°12' E 026°23'2 1.4
2016-Apr-28 09:23N 60°11' E 026°20'0 0.1
2016-Apr-28 08:33N 60°11' E 026°20'52 9.9
2016-Apr-28 03:18N 59°44' E 024°51'911.5
2016-Apr-28 02:31N 59°35' E 024°49'15 1.9
2016-Apr-27 18:23N 59°37' E 024°19'1011.4
2016-Apr-27 17:30N 59°35' E 023°59'1411.3
2016-Apr-27 16:18N 59°31' E 023°33'  
2016-Apr-21 17:18N 55°42' E 015°36'911.7
2016-Apr-21 16:31N 55°38' E 015°22'1111.5
2016-Apr-21 15:33N 55°32' E 015°05'1211.6
2016-Apr-21 14:33N 55°27' E 014°47'1211.5
2016-Apr-21 13:33N 55°19' E 014°32'1111.1
2016-Apr-21 12:33N 55°11' E 014°18'1111.2
2016-Apr-21 11:33N 55°09' E 013°59'1211.5
2016-Apr-21 10:33N 55°10' E 013°39'1411.5
2016-Apr-21 09:20N 55°13' E 013°14'911.7
2016-Apr-21 08:33N 55°14' E 012°59'1111.4
2016-Apr-21 07:33N 55°18' E 012°40'1010.1
2016-Apr-21 06:33N 55°28' E 012°41'10 9.8
2016-Apr-21 05:33N 55°38' E 012°42'1010.4
2016-Apr-21 04:34N 55°48' E 012°42'1110.7
2016-Apr-21 03:34N 55°59' E 012°40'1110.6
2016-Apr-21 02:34N 56°07' E 012°30'1111.3
2016-Apr-21 01:33N 56°14' E 012°12'1410.5
2016-Apr-21 00:13N 56°26' E 011°60'811.5
2016-Apr-20 23:33N 56°33' E 011°57'1111.4
2016-Apr-20 22:33N 56°44' E 011°52'1311.3
2016-Apr-20 21:26N 56°56' E 011°45'1011.2
2016-Apr-20 20:32N 57°06' E 011°39'1111.1
2016-Apr-20 19:33N 57°16' E 011°32'1111.3
2016-Apr-20 18:33N 57°27' E 011°24'1111.5
2016-Apr-20 17:34N 57°35' E 011°09'1211.8
2016-Apr-20 16:33N 57°43' E 010°53'  

Dump ship's entire track history